Time,TemperatureF,DewpointF,PressureIn,WindDirection,WindDirectionDegrees,WindSpeedMPH,WindSpeedGustMPH,Humidity,HourlyPrecipIn,Conditions,Clouds,dailyrainin,SoftwareType,DateUTC
2013-04-02 00:14:00,42.3,23.0,30.01,NW,311,5.0,5.0,47,0.00,,,0.00,weatherlink.com 1.10,2013-04-02 04:14:00,
2013-04-02 00:29:00,42.1,23.0,30.01,NNW,347,7.0,12.0,46,0.00,,,0.00,weatherlink.com 1.10,2013-04-02 04:29:00,
2013-04-02 00:44:00,42.2,22.0,30.02,NNW,327,8.0,12.0,44,0.00,,,0.00,weatherlink.com 1.10,2013-04-02 04:44:00,
2013-04-02 00:59:00,42.1,21.0,30.02,NNW,330,7.0,9.0,44,0.00,,,0.00,weatherlink.com 1.10,2013-04-02 04:59:00,
2013-04-02 01:14:00,41.5,21.0,30.03,WNW,301,2.0,6.0,45,0.00,,,0.00,weatherlink.com 1.10,2013-04-02 05:14:00,
2013-04-02 01:29:00,41.3,21.0,30.03,NW,325,3.0,7.0,45,0.00,,,0.00,weatherlink.com 1.10,2013-04-02 05:29:00,
2013-04-02 01:44:00,40.9,20.0,30.04,NW,308,4.0,6.0,44,0.00,,,0.00,weatherlink.com 1.10,2013-04-02 05:44:00,
2013-04-02 01:59:00,40.5,20.0,30.04,WNW,302,1.0,5.0,44,0.00,,,0.00,weatherlink.com 1.10,2013-04-02 05:59:00,
2013-04-02 02:14:00,40.1,20.0,30.03,NW,323,2.0,6.0,44,0.00,,,0.00,weatherlink.com 1.10,2013-04-02 06:14:00,
2013-04-02 02:29:00,39.5,19.0,30.04,WNW,300,2.0,3.0,43,0.00,,,0.00,weatherlink.com 1.10,2013-04-02 06:29:00,
2013-04-02 02:44:00,39.1,19.0,30.04,NW,308,1.0,3.0,45,0.00,,,0.00,weatherlink.com 1.10,2013-04-02 06:44:00,
2013-04-02 02:59:00,38.5,18.0,30.04,West,269,1.0,2.0,43,0.00,,,0.00,weatherlink.com 1.10,2013-04-02 06:59:00,
2013-04-02 03:14:00,38.3,17.0,30.04,West,276,1.0,4.0,43,0.00,,,0.00,weatherlink.com 1.10,2013-04-02 07:14:00,
2013-04-02 03:29:00,38.2,18.0,30.03,WNW,295,1.0,5.0,45,0.00,,,0.00,weatherlink.com 1.10,2013-04-02 07:29:00,
2013-04-02 03:44:00,37.8,18.0,30.04,West,268,1.0,1.0,45,0.00,,,0.00,weatherlink.com 1.10,2013-04-02 07:44:00,
2013-04-02 03:59:00,38.0,17.0,30.04,WNW,290,1.0,2.0,43,0.00,,,0.00,weatherlink.com 1.10,2013-04-02 07:59:00,
2013-04-02 04:14:00,38.0,17.0,30.04,WNW,284,1.0,3.0,42,0.00,,,0.00,weatherlink.com 1.10,2013-04-02 08:14:00,
2013-04-02 04:29:00,38.0,16.0,30.04,West,280,1.0,3.0,41,0.00,,,0.00,weatherlink.com 1.10,2013-04-02 08:29:00,
2013-04-02 04:44:00,37.9,17.0,30.04,West,261,1.0,1.0,43,0.00,,,0.00,weatherlink.com 1.10,2013-04-02 08:44:00,
2013-04-02 04:59:00,37.6,16.0,30.05,West,262,0.0,1.0,42,0.00,,,0.00,weatherlink.com 1.10,2013-04-02 08:59:00,
2013-04-02 05:14:00,37.6,16.0,30.05,West,262,0.0,1.0,42,0.00,,,0.00,weatherlink.com 1.10,2013-04-02 09:14:00,
2013-04-02 05:29:00,35.4,20.0,30.05,NW,314,1.0,2.0,53,0.00,,,0.00,weatherlink.com 1.10,2013-04-02 09:29:00,
2013-04-02 05:44:00,34.8,17.0,30.06,West,273,1.0,2.0,49,0.00,,,0.00,weatherlink.com 1.10,2013-04-02 09:44:00,
2013-04-02 05:59:00,33.1,20.0,30.06,West,273,0.0,0.0,58,0.00,,,0.00,weatherlink.com 1.10,2013-04-02 09:59:00,
2013-04-02 06:15:00,32.8,20.0,30.07,West,268,0.0,1.0,59,0.00,,,0.00,weatherlink.com 1.10,2013-04-02 10:15:00,
2013-04-02 06:30:00,33.0,17.0,30.07,West,274,2.0,2.0,52,0.00,,,0.00,weatherlink.com 1.10,2013-04-02 10:30:00,
2013-04-02 06:45:00,33.8,17.0,30.08,West,275,1.0,2.0,50,0.00,,,0.00,weatherlink.com 1.10,2013-04-02 10:45:00,
2013-04-02 07:00:00,32.5,19.0,30.09,West,274,0.0,0.0,58,0.00,,,0.00,weatherlink.com 1.10,2013-04-02 11:00:00,
2013-04-02 07:15:00,32.7,20.0,30.10,West,271,0.0,0.0,59,0.00,,,0.00,weatherlink.com 1.10,2013-04-02 11:15:00,
2013-04-02 07:30:00,34.6,21.0,30.11,WNW,290,1.0,3.0,57,0.00,,,0.00,weatherlink.com 1.10,2013-04-02 11:30:00,
2013-04-02 07:45:00,37.4,20.0,30.12,NW,308,6.0,7.0,50,0.00,,,0.00,weatherlink.com 1.10,2013-04-02 11:45:00,
2013-04-02 08:00:00,38.4,20.0,30.13,North,8,5.0,5.0,48,0.00,,,0.00,weatherlink.com 1.10,2013-04-02 12:00:00,
2013-04-02 08:15:00,38.9,20.0,30.14,NNW,329,4.0,7.0,46,0.00,,,0.00,weatherlink.com 1.10,2013-04-02 12:15:00,
2013-04-02 08:30:00,39.4,20.0,30.14,NNW,336,2.0,4.0,46,0.00,,,0.00,weatherlink.com 1.10,2013-04-02 12:30:00,
2013-04-02 08:45:00,39.6,20.0,30.14,NW,314,6.0,8.0,45,0.00,,,0.00,weatherlink.com 1.10,2013-04-02 12:45:00,
2013-04-02 09:00:00,40.4,20.0,30.14,NW,314,6.0,12.0,44,0.00,,,0.00,weatherlink.com 1.10,2013-04-02 13:00:00,
2013-04-02 09:15:00,41.0,18.0,30.14,WNW,303,15.0,18.0,40,0.00,,,0.00,weatherlink.com 1.10,2013-04-02 13:15:00,
2013-04-02 09:30:00,41.6,18.0,30.13,West,260,11.0,18.0,38,0.00,,,0.00,weatherlink.com 1.10,2013-04-02 13:30:00,
2013-04-02 09:45:00,42.3,19.0,30.13,NNE,13,18.0,18.0,39,0.00,,,0.00,weatherlink.com 1.10,2013-04-02 13:45:00,
2013-04-02 10:00:00,41.9,17.0,30.13,NW,326,14.0,21.0,37,0.00,,,0.00,weatherlink.com 1.10,2013-04-02 14:00:00,
2013-04-02 10:15:00,42.3,16.0,30.13,WNW,288,13.0,22.0,35,0.00,,,0.00,weatherlink.com 1.10,2013-04-02 14:15:00,
2013-04-02 10:30:00,42.3,16.0,30.13,WNW,301,18.0,24.0,34,0.00,,,0.00,weatherlink.com 1.10,2013-04-02 14:30:00,
2013-04-02 10:45:00,42.4,16.0,30.12,NW,307,18.0,24.0,34,0.00,,,0.00,weatherlink.com 1.10,2013-04-02 14:45:00,
2013-04-02 11:00:00,43.0,15.0,30.12,WNW,287,4.0,30.0,32,0.00,,,0.00,weatherlink.com 1.10,2013-04-02 15:00:00,
2013-04-02 11:15:00,43.4,15.0,30.12,NW,309,5.0,20.0,32,0.00,,,0.00,weatherlink.com 1.10,2013-04-02 15:15:00,
2013-04-02 11:30:00,43.5,13.0,30.12,West,275,15.0,28.0,29,0.00,,,0.00,weatherlink.com 1.10,2013-04-02 15:30:00,
2013-04-02 11:45:00,43.9,14.0,30.12,NW,305,8.0,19.0,30,0.00,,,0.00,weatherlink.com 1.10,2013-04-02 15:45:00,
2013-04-02 12:00:00,43.8,10.0,30.12,WNW,301,10.0,26.0,25,0.00,,,0.00,weatherlink.com 1.10,2013-04-02 16:00:00,
2013-04-02 12:15:00,44.2,11.0,30.11,NNW,340,18.0,18.0,26,0.00,,,0.00,weatherlink.com 1.10,2013-04-02 16:15:00,
2013-04-02 12:30:00,44.3,14.0,30.11,NNW,333,21.0,27.0,29,0.00,,,0.00,weatherlink.com 1.10,2013-04-02 16:30:00,
2013-04-02 12:45:00,44.5,12.0,30.11,NNE,20,22.0,27.0,27,0.00,,,0.00,weatherlink.com 1.10,2013-04-02 16:45:00,
2013-04-02 13:01:00,44.7,10.0,30.10,WNW,294,15.0,28.0,24,0.00,,,0.00,weatherlink.com 1.10,2013-04-02 17:01:00,
2013-04-02 13:16:00,45.1,11.0,30.10,WNW,303,12.0,25.0,25,0.00,,,0.00,weatherlink.com 1.10,2013-04-02 17:16:00,
2013-04-02 14:16:00,45.7,12.0,30.09,NW,312,15.0,29.0,25,0.00,,,0.00,weatherlink.com 1.10,2013-04-02 18:16:00,
2013-04-02 15:31:00,47.2,13.0,30.07,NW,307,10.0,23.0,25,0.00,,,0.00,weatherlink.com 1.10,2013-04-02 19:31:00,
2013-04-02 16:31:00,47.7,11.0,30.07,WNW,301,11.0,24.0,23,0.00,,,0.00,weatherlink.com 1.10,2013-04-02 20:31:00,
2013-04-02 17:16:00,48.5,15.0,30.08,NNW,328,3.0,19.0,26,0.00,,,0.00,weatherlink.com 1.10,2013-04-02 21:16:00,
2013-04-02 17:46:00,48.4,15.0,30.09,NNE,12,8.0,21.0,26,0.00,,,0.00,weatherlink.com 1.10,2013-04-02 21:46:00,
2013-04-02 18:01:00,48.4,14.0,30.09,NW,314,11.0,24.0,25,0.00,,,0.00,weatherlink.com 1.10,2013-04-02 22:01:00,
2013-04-02 18:16:00,48.2,15.0,30.10,North,355,16.0,22.0,26,0.00,,,0.00,weatherlink.com 1.10,2013-04-02 22:16:00,
2013-04-02 18:31:00,48.0,15.0,30.10,NW,325,7.0,18.0,27,0.00,,,0.00,weatherlink.com 1.10,2013-04-02 22:31:00,
2013-04-02 19:01:00,47.4,15.0,30.11,North,355,13.0,15.0,27,0.00,,,0.00,weatherlink.com 1.10,2013-04-02 23:01:00,
2013-04-02 19:16:00,46.6,16.0,30.12,NNW,333,9.0,13.0,29,0.00,,,0.00,weatherlink.com 1.10,2013-04-02 23:16:00,
2013-04-02 19:46:00,45.3,16.0,30.13,NNW,329,5.0,9.0,31,0.00,,,0.00,weatherlink.com 1.10,2013-04-02 23:46:00,
2013-04-02 20:01:00,45.0,14.0,30.13,North,4,5.0,8.0,29,0.00,,,0.00,weatherlink.com 1.10,2013-04-03 00:01:00,
2013-04-02 20:16:00,44.6,16.0,30.14,NNW,330,3.0,7.0,31,0.00,,,0.00,weatherlink.com 1.10,2013-04-03 00:16:00,
2013-04-02 20:31:00,44.1,17.0,30.15,NW,326,3.0,7.0,34,0.00,,,0.00,weatherlink.com 1.10,2013-04-03 00:31:00,
2013-04-02 21:01:00,42.9,15.0,30.16,NW,311,1.0,3.0,32,0.00,,,0.00,weatherlink.com 1.10,2013-04-03 01:01:00,
2013-04-02 21:17:00,42.0,21.0,30.16,NW,305,1.0,1.0,43,0.00,,,0.00,weatherlink.com 1.10,2013-04-03 01:17:00,
2013-04-02 21:31:00,41.0,24.0,30.17,North,351,1.0,2.0,51,0.00,,,0.00,weatherlink.com 1.10,2013-04-03 01:31:00,
2013-04-02 22:31:00,38.0,24.0,30.18,North,349,1.0,2.0,57,0.00,,,0.00,weatherlink.com 1.10,2013-04-03 02:31:00,
2013-04-02 22:47:00,38.0,22.0,30.18,NNW,336,1.0,2.0,52,0.00,,,0.00,weatherlink.com 1.10,2013-04-03 02:47:00,
2013-04-02 23:01:00,38.3,20.0,30.19,North,352,1.0,2.0,49,0.00,,,0.00,weatherlink.com 1.10,2013-04-03 03:01:00,
2013-04-02 23:17:00,37.9,18.0,30.19,NNW,343,1.0,1.0,44,0.00,,,0.00,weatherlink.com 1.10,2013-04-03 03:17:00,
2013-04-02 23:31:00,37.8,22.0,30.19,NNW,339,1.0,3.0,53,0.00,,,0.00,weatherlink.com 1.10,2013-04-03 03:31:00,
2013-04-02 23:46:00,35.4,23.0,30.20,WNW,299,1.0,1.0,62,0.00,,,0.00,weatherlink.com 1.10,2013-04-03 03:46:00,